createdAt,value
2023-02-25T00:00:17.742Z,28.33
2023-02-25T00:02:46.650Z,22.27
2023-02-25T00:05:15.647Z,27.90
2023-02-25T00:07:46.270Z,26.40
2023-02-25T00:10:15.811Z,27.90
2023-02-25T00:12:44.802Z,30.50
2023-02-25T00:15:13.703Z,27.05
2023-02-25T00:17:42.314Z,32.80
2023-02-25T00:20:13.944Z,36.33
2023-02-25T00:22:44.222Z,30.45
2023-02-25T00:25:12.983Z,27.95
2023-02-25T00:27:41.649Z,28.77
2023-02-25T00:30:12.388Z,28.50
2023-02-25T00:32:41.110Z,32.42
2023-02-25T00:35:13.784Z,46.67
2023-02-25T00:37:42.671Z,40.97
2023-02-25T00:40:15.820Z,34.75
2023-02-25T00:42:44.856Z,34.55
2023-02-25T00:45:14.194Z,31.92
2023-02-25T00:47:42.959Z,30.50
2023-02-25T00:50:19.180Z,49.03
2023-02-25T00:52:49.627Z,55.55
2023-02-25T00:55:20.177Z,43.58
2023-02-25T00:57:48.819Z,37.20
2023-02-25T01:00:18.198Z,31.00
2023-02-25T01:02:47.625Z,30.80
2023-02-25T01:07:45.881Z,37.27
2023-02-25T01:10:14.539Z,38.92
2023-02-25T01:12:44.886Z,55.97
2023-02-25T01:15:22.367Z,43.92
2023-02-25T01:17:51.317Z,41.42
2023-02-25T01:20:22.720Z,35.92
2023-02-25T01:22:53.717Z,29.73
2023-02-25T01:25:27.590Z,29.85
2023-02-25T01:27:58.461Z,34.63
2023-02-25T01:30:29.018Z,54.45
2023-02-25T01:33:02.291Z,48.42
2023-02-25T01:35:31.363Z,49.08
2023-02-25T01:38:00.118Z,36.92
2023-02-25T01:40:34.809Z,33.42
2023-02-25T01:43:08.936Z,38.17
2023-02-25T01:45:45.579Z,41.15
2023-02-25T01:48:18.525Z,41.28
2023-02-25T01:50:51.445Z,50.30
2023-02-25T01:53:25.005Z,43.60
2023-02-25T01:55:54.030Z,39.90
2023-02-25T01:58:24.235Z,36.05
2023-02-25T02:00:55.777Z,27.50
2023-02-25T02:03:27.682Z,23.63
2023-02-25T02:06:03.799Z,26.40
2023-02-25T02:08:35.693Z,25.75
2023-02-25T02:11:04.446Z,29.63
2023-02-25T02:13:37.371Z,26.70
2023-02-25T02:16:28.069Z,24.88
2023-02-25T02:18:59.681Z,24.10
2023-02-25T02:21:51.108Z,21.52
2023-02-25T02:24:59.501Z,23.90
2023-02-25T02:27:36.851Z,23.08
2023-02-25T02:30:27.439Z,22.05
2023-02-25T02:33:04.026Z,25.35
2023-02-25T02:35:42.789Z,23.85
2023-02-25T02:38:19.363Z,19.73
2023-02-25T02:41:00.924Z,21.83
2023-02-25T02:43:40.962Z,19.05
2023-02-25T02:46:16.382Z,21.00
2023-02-25T02:48:51.826Z,21.25
2023-02-25T02:51:26.078Z,19.30
2023-02-25T02:53:58.456Z,19.92
2023-02-25T02:56:29.064Z,21.40
2023-02-25T02:59:05.572Z,20.17
2023-02-25T03:01:38.348Z,19.92
2023-02-25T03:04:13.511Z,20.35
2023-02-25T03:06:47.013Z,18.70
2023-02-25T03:09:19.908Z,19.45
2023-02-25T03:11:48.760Z,18.95
2023-02-25T03:14:17.491Z,21.88
2023-02-25T03:16:54.472Z,20.73
2023-02-25T03:19:28.198Z,19.77
2023-02-25T03:22:03.590Z,20.40
2023-02-25T03:24:37.054Z,19.17
2023-02-25T03:27:24.492Z,21.33
2023-02-25T03:29:58.905Z,20.40
2023-02-25T03:32:31.376Z,20.33
2023-02-25T03:35:03.875Z,19.45
2023-02-25T03:37:35.785Z,20.73
2023-02-25T03:40:11.473Z,22.20
2023-02-25T03:42:45.098Z,20.27
2023-02-25T03:45:14.694Z,20.58
2023-02-25T03:47:44.596Z,18.73
2023-02-25T03:50:21.439Z,19.83
2023-02-25T03:52:55.049Z,23.70
2023-02-25T03:56:05.601Z,22.10
2023-02-25T03:58:36.163Z,23.50
2023-02-25T04:01:08.935Z,21.20
2023-02-25T04:03:37.524Z,24.00
2023-02-25T04:06:08.025Z,26.40
2023-02-25T04:08:36.631Z,22.05
2023-02-25T04:11:05.356Z,22.52
2023-02-25T04:13:34.685Z,23.20
2023-02-25T04:16:03.496Z,23.52
2023-02-25T04:18:32.521Z,22.38
2023-02-25T04:21:01.946Z,30.35
2023-02-25T04:23:31.926Z,24.27
2023-02-25T04:26:00.546Z,25.25
2023-02-25T04:28:29.052Z,25.35
2023-02-25T04:30:57.743Z,40.47
2023-02-25T04:33:26.420Z,24.47
2023-02-25T04:35:54.976Z,25.65
2023-02-25T04:38:23.502Z,26.45
2023-02-25T04:40:54.296Z,25.75
2023-02-25T04:43:22.849Z,25.23
2023-02-25T04:45:51.406Z,24.40
2023-02-25T04:48:24.358Z,24.42
2023-02-25T04:50:52.986Z,26.15
2023-02-25T04:53:21.870Z,28.30
2023-02-25T04:55:50.395Z,31.43
2023-02-25T04:58:20.353Z,26.38
2023-02-25T05:00:49.546Z,37.28
2023-02-25T05:03:18.091Z,23.05
2023-02-25T05:05:46.607Z,22.95
2023-02-25T05:08:15.274Z,24.08
2023-02-25T05:10:43.873Z,25.35
2023-02-25T05:13:12.371Z,24.38
2023-02-25T05:15:42.718Z,21.33
2023-02-25T05:18:11.683Z,22.50
2023-02-25T05:20:42.387Z,26.55
2023-02-25T05:23:11.929Z,28.20
2023-02-25T05:25:41.903Z,26.30
2023-02-25T05:28:10.997Z,27.02
2023-02-25T05:30:42.538Z,32.72
2023-02-25T05:33:13.708Z,31.75
2023-02-25T05:35:42.419Z,26.92
2023-02-25T05:38:10.960Z,26.90
2023-02-25T05:40:40.569Z,26.77
2023-02-25T05:43:09.304Z,37.10
2023-02-25T05:45:37.854Z,28.50
2023-02-25T05:48:08.128Z,29.20
2023-02-25T05:50:41.860Z,30.67
2023-02-25T05:53:11.056Z,30.13
2023-02-25T05:55:43.052Z,26.65
2023-02-25T05:58:12.016Z,24.27
2023-02-25T06:00:41.134Z,23.67
2023-02-25T06:03:11.771Z,30.42
2023-02-25T06:05:42.210Z,25.83
2023-02-25T06:08:11.092Z,24.40
2023-02-25T06:10:41.181Z,24.48
2023-02-25T06:13:11.397Z,27.30
2023-02-25T06:15:40.586Z,24.73
2023-02-25T06:18:11.097Z,21.73
2023-02-25T06:20:39.747Z,18.10
2023-02-25T06:23:08.487Z,21.48
2023-02-25T06:25:37.275Z,21.08
2023-02-25T06:28:06.221Z,19.00
2023-02-25T06:30:34.939Z,18.02
2023-02-25T06:33:03.685Z,18.33
2023-02-25T06:35:36.210Z,17.77
2023-02-25T06:38:04.840Z,16.45
2023-02-25T06:40:34.301Z,21.30
2023-02-25T06:43:02.827Z,17.83
2023-02-25T06:45:31.341Z,19.65
2023-02-25T06:47:59.963Z,16.98
2023-02-25T06:50:28.560Z,13.55
2023-02-25T06:52:59.377Z,14.75
2023-02-25T06:55:28.008Z,12.85
2023-02-25T06:57:56.623Z,14.35
2023-02-25T07:00:25.719Z,13.77
2023-02-25T07:02:54.275Z,12.25
2023-02-25T07:05:22.878Z,11.98
2023-02-25T07:07:51.398Z,11.60
2023-02-25T07:10:21.473Z,11.77
2023-02-25T07:12:50.063Z,14.48
2023-02-25T07:15:18.620Z,13.45
2023-02-25T07:17:51.946Z,12.73
2023-02-25T07:20:22.509Z,11.77
2023-02-25T07:22:59.291Z,11.60
2023-02-25T07:25:32.629Z,11.30
2023-02-25T07:28:04.013Z,11.15
2023-02-25T07:30:32.920Z,9.88
2023-02-25T07:33:05.904Z,9.77
2023-02-25T07:35:35.072Z,9.27
2023-02-25T07:38:04.001Z,10.05
2023-02-25T07:40:37.095Z,12.10
2023-02-25T07:43:08.203Z,12.10
2023-02-25T07:45:38.136Z,11.55
2023-02-25T07:48:07.492Z,15.77
2023-02-25T07:50:37.553Z,16.33
2023-02-25T07:53:06.190Z,16.65
2023-02-25T07:55:36.227Z,20.45
2023-02-25T07:58:08.110Z,17.27
2023-02-25T08:00:38.782Z,19.75
2023-02-25T08:03:07.670Z,21.27
2023-02-25T08:05:43.370Z,18.87
2023-02-25T08:08:14.401Z,22.58
2023-02-25T08:10:49.232Z,20.58
2023-02-25T08:13:20.137Z,27.13
2023-02-25T08:15:51.543Z,23.13
2023-02-25T08:18:20.154Z,34.35
2023-02-25T08:20:56.198Z,20.73
2023-02-25T08:23:30.806Z,23.20
2023-02-25T08:26:03.112Z,19.88
2023-02-25T08:28:37.210Z,18.55
2023-02-25T08:31:12.279Z,18.00
2023-02-25T08:33:44.227Z,15.70
2023-02-25T08:36:14.742Z,14.25
2023-02-25T08:38:45.989Z,10.38
2023-02-25T08:41:25.852Z,12.25
2023-02-25T08:43:58.072Z,11.30
2023-02-25T08:46:33.547Z,14.82
2023-02-25T08:49:02.793Z,13.30
2023-02-25T08:51:35.194Z,14.13
2023-02-25T08:54:09.129Z,15.13
2023-02-25T08:56:44.552Z,56.53
2023-02-25T08:59:16.131Z,23.15
2023-02-25T09:01:49.204Z,16.15
2023-02-25T09:04:21.246Z,32.30
2023-02-25T09:06:51.018Z,46.97
2023-02-25T09:09:20.930Z,52.83
2023-02-25T09:11:51.015Z,16.58
2023-02-25T09:14:22.331Z,20.40
2023-02-25T09:16:51.149Z,17.17
2023-02-25T09:19:20.931Z,16.43
2023-02-25T09:21:50.456Z,15.95
2023-02-25T09:24:23.583Z,19.35
2023-02-25T09:26:55.675Z,19.80
2023-02-25T09:29:28.687Z,16.33
2023-02-25T09:31:57.435Z,17.25
2023-02-25T09:34:26.162Z,23.73
2023-02-25T09:36:54.771Z,14.30
2023-02-25T09:39:27.719Z,21.15
2023-02-25T09:42:04.762Z,36.53
2023-02-25T09:44:41.165Z,17.67
2023-02-25T09:47:29.469Z,15.40
2023-02-25T09:50:05.339Z,25.15
2023-02-25T09:52:39.520Z,38.38
2023-02-25T09:55:20.355Z,22.27
2023-02-25T09:58:00.016Z,18.08
2023-02-25T10:00:31.356Z,15.63
2023-02-25T10:03:06.590Z,17.25
2023-02-25T10:05:48.385Z,22.65
2023-02-25T10:08:27.239Z,18.63
2023-02-25T10:11:05.137Z,19.87
2023-02-25T10:13:46.467Z,18.67
2023-02-25T10:16:30.263Z,17.63
2023-02-25T10:19:10.291Z,15.75
2023-02-25T10:22:07.129Z,31.55
2023-02-25T10:24:44.761Z,23.27
2023-02-25T10:27:22.160Z,19.08
2023-02-25T10:29:58.314Z,18.25
2023-02-25T10:32:29.170Z,23.52
2023-02-25T10:35:03.921Z,17.65
2023-02-25T10:37:37.769Z,18.88
2023-02-25T10:40:17.780Z,67.20
2023-02-25T10:42:51.339Z,15.82
2023-02-25T10:45:30.257Z,18.27
2023-02-25T10:48:07.129Z,21.15
2023-02-25T10:50:45.340Z,42.63
2023-02-25T10:53:19.645Z,39.45
2023-02-25T10:55:54.964Z,19.42
2023-02-25T10:58:35.852Z,36.55
2023-02-25T11:01:24.060Z,16.38
2023-02-25T11:03:59.091Z,34.83
2023-02-25T11:06:29.966Z,18.45
2023-02-25T11:09:02.955Z,27.08
2023-02-25T11:11:53.682Z,39.80
2023-02-25T11:14:29.606Z,27.58
2023-02-25T11:17:12.556Z,30.98
2023-02-25T11:19:46.108Z,20.83
2023-02-25T11:22:19.837Z,21.08
2023-02-25T11:25:01.458Z,19.98
2023-02-25T11:27:39.258Z,17.05
2023-02-25T11:30:18.846Z,18.55
2023-02-25T11:32:53.981Z,29.42
2023-02-25T11:35:30.086Z,20.60
2023-02-25T11:38:03.372Z,21.65
2023-02-25T11:40:43.110Z,20.10
2023-02-25T11:45:56.843Z,24.70
2023-02-25T11:48:32.450Z,22.27
2023-02-25T11:51:22.946Z,16.60
2023-02-25T11:54:27.134Z,20.37
2023-02-25T11:57:05.275Z,19.88
2023-02-25T11:59:38.481Z,18.65
2023-02-25T12:02:42.878Z,16.60
2023-02-25T12:05:35.416Z,20.40
2023-02-25T12:08:14.552Z,17.48
2023-02-25T12:11:24.220Z,16.95
2023-02-25T12:17:36.354Z,19.58
2023-02-25T12:21:05.312Z,18.45
2023-02-25T12:26:42.820Z,18.23
2023-02-25T12:29:49.687Z,22.05
2023-02-25T12:32:40.125Z,21.20
2023-02-25T12:36:09.429Z,22.98
2023-02-25T12:39:14.384Z,17.98
2023-02-25T12:41:59.021Z,19.98
2023-02-25T12:45:06.981Z,16.92
2023-02-25T12:47:53.444Z,21.25
2023-02-25T12:50:47.045Z,21.75
2023-02-25T12:53:32.137Z,23.25
2023-02-25T12:56:22.370Z,22.85
2023-02-25T12:59:25.987Z,23.55
2023-02-25T13:02:14.901Z,21.40
2023-02-25T13:05:26.273Z,19.02
2023-02-25T13:08:26.447Z,17.90
2023-02-25T13:11:01.760Z,22.73
2023-02-25T13:14:02.373Z,16.42
2023-02-25T13:16:53.030Z,17.05
2023-02-25T13:19:58.141Z,18.52
2023-02-25T13:22:45.861Z,23.40
2023-02-25T13:25:19.870Z,25.83
2023-02-25T13:28:05.128Z,20.23
2023-02-25T13:30:44.381Z,16.50
2023-02-25T13:33:41.067Z,22.83
2023-02-25T13:36:42.404Z,19.70
2023-02-25T13:39:30.241Z,20.02
2023-02-25T13:42:20.901Z,17.55
2023-02-25T13:45:30.442Z,19.10
2023-02-25T13:48:16.436Z,16.80
2023-02-25T13:51:15.811Z,15.52
2023-02-25T13:54:01.997Z,19.98
2023-02-25T13:56:56.732Z,19.83
2023-02-25T13:59:43.983Z,18.00
2023-02-25T14:02:35.909Z,17.25
2023-02-25T14:05:27.406Z,15.70
2023-02-25T14:08:29.449Z,15.38
2023-02-25T14:11:11.374Z,19.17
2023-02-25T14:17:47.899Z,14.32
2023-02-25T14:20:27.812Z,20.40
2023-02-25T14:23:01.789Z,20.15
2023-02-25T14:25:58.268Z,21.38
2023-02-25T14:28:44.217Z,16.35
2023-02-25T14:31:21.959Z,20.52
2023-02-25T14:34:19.837Z,13.75
2023-02-25T14:37:00.804Z,14.32
2023-02-25T14:40:30.231Z,11.05
2023-02-25T14:43:13.711Z,14.38
2023-02-25T14:45:47.532Z,13.82
2023-02-25T14:48:26.279Z,10.25
2023-02-25T14:51:12.525Z,11.70
2023-02-25T14:54:01.064Z,11.63
2023-02-25T14:57:05.761Z,9.70
2023-02-25T15:00:19.298Z,11.05
2023-02-25T15:03:11.456Z,10.88
2023-02-25T15:05:58.616Z,15.40
2023-02-25T15:08:58.529Z,11.20
2023-02-25T15:11:51.936Z,9.13
2023-02-25T15:14:50.258Z,14.63
2023-02-25T15:18:04.986Z,13.43
2023-02-25T15:20:39.161Z,12.02
2023-02-25T15:23:12.827Z,11.07
2023-02-25T15:25:45.145Z,10.45
2023-02-25T15:28:39.868Z,11.15
2023-02-25T15:31:39.011Z,12.18
2023-02-25T15:34:44.147Z,11.13
2023-02-25T15:37:35.606Z,12.88
2023-02-25T15:40:52.568Z,11.63
2023-02-25T15:43:48.173Z,17.73
2023-02-25T15:46:44.211Z,10.02
2023-02-25T15:49:29.341Z,11.52
2023-02-25T15:52:04.482Z,26.85
2023-02-25T15:54:52.001Z,24.77
2023-02-25T15:57:42.025Z,16.10
2023-02-25T16:00:53.224Z,13.63
2023-02-25T16:03:43.385Z,9.93
2023-02-25T16:06:22.152Z,15.35
2023-02-25T16:08:58.092Z,12.17
2023-02-25T16:11:35.903Z,10.75
2023-02-25T16:14:44.956Z,10.95
2023-02-25T16:17:20.009Z,15.20
2023-02-25T16:19:53.966Z,12.57
2023-02-25T16:22:29.117Z,13.13
2023-02-25T16:25:01.957Z,17.33
2023-02-25T16:27:45.882Z,15.70
2023-02-25T16:30:42.079Z,15.77
2023-02-25T16:33:20.659Z,17.20
2023-02-25T16:36:06.939Z,16.40
2023-02-25T16:38:47.174Z,15.60
2023-02-25T16:41:16.924Z,17.33
2023-02-25T16:46:35.576Z,17.55
2023-02-25T16:49:10.063Z,16.80
2023-02-25T16:51:41.426Z,21.95
2023-02-25T16:54:17.827Z,20.38
2023-02-25T16:56:49.165Z,18.08
2023-02-25T16:59:24.200Z,19.38
2023-02-25T17:01:58.730Z,16.55
2023-02-25T17:04:31.299Z,25.38
2023-02-25T17:07:17.112Z,17.08
2023-02-25T17:09:47.633Z,16.15
2023-02-25T17:12:20.388Z,15.68
2023-02-25T17:14:54.238Z,14.65
2023-02-25T17:17:28.098Z,11.10
2023-02-25T17:19:58.037Z,12.10
2023-02-25T17:22:32.035Z,13.38
2023-02-25T17:25:02.319Z,11.10
2023-02-25T17:27:36.261Z,10.93
2023-02-25T17:30:28.268Z,13.48
2023-02-25T17:33:00.152Z,14.75
2023-02-25T17:35:29.914Z,15.77
2023-02-25T17:40:29.433Z,14.98
2023-02-25T17:43:20.837Z,17.92
2023-02-25T17:45:55.434Z,12.30
2023-02-25T17:48:26.783Z,14.05
2023-02-25T17:51:02.598Z,12.65
2023-02-25T17:53:45.386Z,12.02
2023-02-25T17:56:21.860Z,12.90
2023-02-25T17:58:55.743Z,14.32
2023-02-25T18:01:30.954Z,13.25
2023-02-25T18:04:06.543Z,14.25
2023-02-25T18:06:41.277Z,14.50
2023-02-25T18:09:30.342Z,12.00
2023-02-25T18:12:03.270Z,18.13
2023-02-25T18:14:36.077Z,11.50
2023-02-25T18:17:24.100Z,14.73
2023-02-25T18:19:57.961Z,12.65
2023-02-25T18:22:40.210Z,13.35
2023-02-25T18:25:30.478Z,10.63
2023-02-25T18:27:59.232Z,11.55
2023-02-25T18:30:33.607Z,12.20
2023-02-25T18:33:06.728Z,17.15
2023-02-25T18:35:35.764Z,19.17
2023-02-25T18:38:04.614Z,13.83
2023-02-25T18:40:35.989Z,13.83
2023-02-25T18:43:06.231Z,11.88
2023-02-25T18:45:39.027Z,13.90
2023-02-25T18:48:11.850Z,14.77
2023-02-25T18:50:52.201Z,13.30
2023-02-25T18:53:23.622Z,14.98
2023-02-25T18:55:56.306Z,15.48
2023-02-25T18:58:26.013Z,12.68
2023-02-25T19:00:56.612Z,72.78
2023-02-25T19:03:30.239Z,14.13
2023-02-25T19:06:03.136Z,17.13
2023-02-25T19:08:31.971Z,12.57
2023-02-25T19:11:00.671Z,14.35
2023-02-25T19:13:31.553Z,12.48
2023-02-25T19:16:03.109Z,14.85
2023-02-25T19:18:33.231Z,11.90
2023-02-25T19:21:01.900Z,9.80
2023-02-25T19:23:30.639Z,11.70
2023-02-25T19:26:01.806Z,10.52
2023-02-25T19:28:30.573Z,12.00
2023-02-25T19:31:02.096Z,10.37
2023-02-25T19:33:35.442Z,11.55
2023-02-25T19:36:08.818Z,11.25
2023-02-25T19:41:36.150Z,8.10
2023-02-25T19:44:04.789Z,14.45
2023-02-25T19:46:36.262Z,10.70
2023-02-25T19:49:06.445Z,10.77
2023-02-25T19:51:35.089Z,10.30
2023-02-25T19:54:03.704Z,10.40
2023-02-25T19:56:32.401Z,10.55
2023-02-25T20:02:05.862Z,10.10
2023-02-25T20:04:36.989Z,10.48
2023-02-25T20:07:10.462Z,10.95
2023-02-25T20:10:03.219Z,11.82
2023-02-25T20:12:54.478Z,10.98
2023-02-25T20:15:23.359Z,10.18
2023-02-25T20:17:55.140Z,12.10
2023-02-25T20:20:28.200Z,10.48
2023-02-25T20:22:56.935Z,9.75
2023-02-25T20:25:25.652Z,13.00
2023-02-25T20:27:54.364Z,11.48
2023-02-25T20:30:36.094Z,10.70
2023-02-25T20:33:13.715Z,11.63
2023-02-25T20:35:54.186Z,12.73
2023-02-25T20:38:28.244Z,11.63
2023-02-25T20:41:08.771Z,12.65
2023-02-25T20:43:40.257Z,12.07
2023-02-25T20:46:23.345Z,12.63
2023-02-25T20:49:06.662Z,11.70
2023-02-25T20:51:48.372Z,11.30
2023-02-25T20:54:18.774Z,15.25
2023-02-25T20:56:54.237Z,15.30
2023-02-25T20:59:32.952Z,16.25
2023-02-25T21:02:07.590Z,13.68
2023-02-25T21:05:37.116Z,13.65
2023-02-25T21:08:10.801Z,14.75
2023-02-25T21:10:47.177Z,16.20
2023-02-25T21:13:18.259Z,12.05
2023-02-25T21:15:54.500Z,10.07
2023-02-25T21:18:23.337Z,12.73
2023-02-25T21:21:10.557Z,11.17
2023-02-25T21:23:41.776Z,10.27
2023-02-25T21:26:11.879Z,13.15
2023-02-25T21:28:46.780Z,12.85
2023-02-25T21:31:18.762Z,18.23
2023-02-25T21:33:47.562Z,12.60
2023-02-25T21:36:17.085Z,11.38
2023-02-25T21:38:47.637Z,12.48
2023-02-25T21:41:20.373Z,11.52
2023-02-25T21:43:54.023Z,14.98
2023-02-25T21:46:23.142Z,23.88
2023-02-25T21:48:53.453Z,14.18
2023-02-25T21:51:26.643Z,13.20
2023-02-25T21:53:58.216Z,13.93
2023-02-25T21:56:28.195Z,12.30
2023-02-25T21:58:58.176Z,9.38
2023-02-25T22:01:29.501Z,13.07
2023-02-25T22:04:02.628Z,11.90
2023-02-25T22:06:31.585Z,9.55
2023-02-25T22:09:04.254Z,10.50
2023-02-25T22:11:45.340Z,11.63
2023-02-25T22:14:14.150Z,11.57
2023-02-25T22:16:43.145Z,12.88
2023-02-25T22:19:11.954Z,9.00
2023-02-25T22:21:43.663Z,13.20
2023-02-25T22:24:14.716Z,10.48
2023-02-25T22:26:44.944Z,10.13
2023-02-25T22:29:13.702Z,11.82
2023-02-25T22:31:44.853Z,8.02
2023-02-25T22:34:15.497Z,10.07
2023-02-25T22:36:44.310Z,7.45
2023-02-25T22:39:17.500Z,7.60
2023-02-25T22:41:47.186Z,7.57
2023-02-25T22:44:18.228Z,9.18
2023-02-25T22:46:49.943Z,8.88
2023-02-25T22:49:20.386Z,10.82
2023-02-25T22:51:51.370Z,8.52
2023-02-25T22:54:23.749Z,11.18
2023-02-25T22:56:52.434Z,8.68
2023-02-25T22:59:21.845Z,6.30
2023-02-25T23:01:50.476Z,10.50
2023-02-25T23:04:19.128Z,7.82
2023-02-25T23:06:48.010Z,10.30
2023-02-25T23:09:18.522Z,8.90
2023-02-25T23:11:52.164Z,9.05
2023-02-25T23:14:24.631Z,7.05
2023-02-25T23:16:53.290Z,11.13
2023-02-25T23:19:22.378Z,12.02
2023-02-25T23:21:51.092Z,6.90
2023-02-25T23:24:19.866Z,7.18
2023-02-25T23:26:53.802Z,7.13
2023-02-25T23:29:24.372Z,5.68
2023-02-25T23:31:53.235Z,8.82
2023-02-25T23:34:27.056Z,11.97
2023-02-25T23:36:58.366Z,8.07
2023-02-25T23:39:27.938Z,5.72
2023-02-25T23:41:58.520Z,6.20
2023-02-25T23:44:27.777Z,8.30
2023-02-25T23:46:56.561Z,6.35
2023-02-25T23:49:25.254Z,6.65
2023-02-25T23:51:54.022Z,7.80
2023-02-25T23:54:25.241Z,6.72
2023-02-25T23:56:53.937Z,8.38
2023-02-25T23:59:25.973Z,6.78
